createdAt,value
2017-10-12T00:02:27.521Z,14.12
2017-10-12T00:04:55.217Z,14.14
2017-10-12T00:07:22.858Z,14.15
2017-10-12T00:09:50.520Z,14.14
2017-10-12T00:12:18.232Z,14.13
2017-10-12T00:14:45.933Z,14.11
2017-10-12T00:17:13.605Z,14.09
2017-10-12T00:19:42.412Z,14.09
2017-10-12T00:22:10.155Z,14.07
2017-10-12T00:24:37.845Z,14.11
2017-10-12T00:27:05.552Z,14.11
2017-10-12T00:29:33.208Z,14.13
2017-10-12T00:32:00.952Z,14.14
2017-10-12T00:34:28.631Z,14.13
2017-10-12T00:36:56.344Z,14.16
2017-10-12T00:39:23.919Z,14.15
2017-10-12T00:41:51.586Z,14.13
2017-10-12T00:44:19.247Z,14.12
2017-10-12T00:46:47.090Z,14.13
2017-10-12T00:49:14.742Z,14.13
2017-10-12T00:51:42.435Z,14.12
2017-10-12T00:54:10.083Z,14.11
2017-10-12T00:56:37.766Z,14.10
2017-10-12T00:59:05.383Z,14.11
2017-10-12T01:01:33.062Z,14.08
2017-10-12T01:04:00.650Z,14.07
2017-10-12T01:06:28.304Z,14.06
2017-10-12T01:08:55.955Z,14.07
2017-10-12T01:11:23.578Z,14.09
2017-10-12T01:13:51.284Z,14.10
2017-10-12T01:16:18.965Z,14.13
2017-10-12T01:18:46.603Z,14.10
2017-10-12T01:21:14.272Z,14.10
2017-10-12T01:23:41.993Z,14.10
2017-10-12T01:26:09.656Z,14.09
2017-10-12T01:28:37.323Z,14.07
2017-10-12T01:31:04.965Z,14.09
2017-10-12T01:33:32.693Z,14.13
2017-10-12T01:36:00.350Z,14.15
2017-10-12T01:38:28.076Z,14.14
2017-10-12T01:40:55.743Z,14.17
2017-10-12T01:43:23.369Z,14.15
2017-10-12T01:45:50.957Z,14.19
2017-10-12T01:48:30.270Z,14.25
2017-10-12T01:50:57.919Z,14.29
2017-10-12T01:53:25.621Z,14.30
2017-10-12T01:55:53.213Z,14.29
2017-10-12T01:58:20.880Z,14.30
2017-10-12T02:00:48.537Z,14.31
2017-10-12T02:03:16.229Z,14.33
2017-10-12T02:05:43.808Z,14.35
2017-10-12T02:08:11.479Z,14.38
2017-10-12T02:10:39.164Z,14.39
2017-10-12T02:13:06.875Z,14.46
2017-10-12T02:15:35.420Z,14.48
2017-10-12T02:18:02.994Z,14.48
2017-10-12T02:20:30.680Z,14.46
2017-10-12T02:22:58.272Z,14.36
2017-10-12T02:25:25.958Z,14.24
2017-10-12T02:27:53.629Z,14.13
2017-10-12T02:30:21.313Z,14.00
2017-10-12T02:32:48.960Z,13.86
2017-10-12T02:35:16.650Z,13.77
2017-10-12T02:37:44.246Z,13.70
2017-10-12T02:40:11.958Z,13.64
2017-10-12T02:42:39.548Z,13.58
2017-10-12T02:45:07.255Z,13.56
2017-10-12T02:47:34.837Z,13.57
2017-10-12T02:50:02.546Z,13.57
2017-10-12T02:52:30.139Z,13.55
2017-10-12T02:54:57.811Z,13.52
2017-10-12T02:57:25.457Z,13.50
2017-10-12T02:59:53.152Z,13.48
2017-10-12T03:02:20.796Z,13.46
2017-10-12T03:04:48.474Z,13.43
2017-10-12T03:07:16.122Z,13.41
2017-10-12T03:09:43.800Z,13.44
2017-10-12T03:12:11.494Z,13.44
2017-10-12T03:14:40.319Z,13.46
2017-10-12T03:17:07.971Z,13.45
2017-10-12T03:19:35.627Z,13.44
2017-10-12T03:22:03.254Z,13.44
2017-10-12T03:24:30.859Z,13.46
2017-10-12T03:26:58.550Z,13.47
2017-10-12T03:29:26.140Z,13.48
2017-10-12T03:31:53.811Z,13.48
2017-10-12T03:34:21.468Z,13.50
2017-10-12T03:36:49.171Z,13.48
2017-10-12T03:39:16.759Z,13.48
2017-10-12T03:41:44.445Z,13.48
2017-10-12T03:44:12.078Z,13.50
2017-10-12T03:46:39.706Z,13.51
2017-10-12T03:49:07.322Z,13.51
2017-10-12T03:51:35.042Z,13.53
2017-10-12T03:54:02.714Z,13.54
2017-10-12T03:56:30.321Z,13.54
2017-10-12T03:58:57.974Z,13.53
2017-10-12T04:01:25.679Z,13.53
2017-10-12T04:03:53.337Z,13.53
2017-10-12T04:06:21.025Z,13.55
2017-10-12T04:08:48.706Z,13.55
2017-10-12T04:11:16.291Z,13.57
2017-10-12T04:13:43.895Z,13.56
2017-10-12T04:16:11.473Z,13.57
2017-10-12T04:18:39.163Z,13.58
2017-10-12T04:21:06.815Z,13.57
2017-10-12T04:23:34.516Z,13.59
2017-10-12T04:26:02.167Z,13.61
2017-10-12T04:28:29.902Z,13.60
2017-10-12T04:30:57.549Z,13.61
2017-10-12T04:33:25.171Z,13.61
2017-10-12T04:35:52.822Z,13.62
2017-10-12T04:38:20.501Z,13.63
2017-10-12T04:40:48.172Z,13.61
2017-10-12T04:43:15.858Z,13.60
2017-10-12T04:45:43.519Z,13.59
2017-10-12T04:48:11.202Z,13.61
2017-10-12T04:50:38.862Z,13.60
2017-10-12T04:53:06.515Z,13.60
2017-10-12T04:55:34.173Z,13.62
2017-10-12T04:58:01.845Z,13.61
2017-10-12T05:00:29.481Z,13.59
2017-10-12T05:02:57.185Z,13.58
2017-10-12T05:05:24.776Z,13.57
2017-10-12T05:07:52.413Z,13.58
2017-10-12T05:10:19.999Z,13.56
2017-10-12T05:12:47.800Z,13.58
2017-10-12T05:15:15.469Z,13.59
2017-10-12T05:17:43.063Z,13.59
2017-10-12T05:20:10.678Z,13.60
2017-10-12T05:22:38.330Z,13.53
2017-10-12T05:25:06.025Z,13.46
2017-10-12T05:27:33.659Z,13.37
2017-10-12T05:30:01.286Z,13.31
2017-10-12T05:32:28.949Z,13.28
2017-10-12T05:34:56.615Z,13.23
2017-10-12T05:37:24.192Z,13.18
2017-10-12T05:39:51.867Z,13.10
2017-10-12T05:42:19.521Z,13.08
2017-10-12T05:44:47.206Z,13.11
2017-10-12T05:47:14.854Z,13.16
2017-10-12T05:49:42.477Z,13.12
2017-10-12T05:52:10.056Z,13.06
2017-10-12T05:54:37.725Z,13.04
2017-10-12T05:57:05.320Z,13.02
2017-10-12T05:59:32.947Z,13.03
2017-10-12T06:02:00.538Z,13.07
2017-10-12T06:04:28.150Z,13.16
2017-10-12T06:06:55.732Z,13.22
2017-10-12T06:09:23.323Z,13.21
2017-10-12T06:11:50.937Z,13.25
2017-10-12T06:14:18.501Z,13.26
2017-10-12T06:16:46.183Z,13.28
2017-10-12T06:19:13.764Z,13.32
2017-10-12T06:21:41.373Z,13.40
2017-10-12T06:24:08.968Z,13.45
2017-10-12T06:26:36.601Z,13.44
2017-10-12T06:29:04.194Z,13.47
2017-10-12T06:31:31.807Z,13.44
2017-10-12T06:33:59.461Z,13.47
2017-10-12T06:36:27.138Z,13.57
2017-10-12T06:38:54.825Z,13.69
2017-10-12T06:41:22.530Z,13.80
2017-10-12T06:43:50.184Z,13.86
2017-10-12T06:46:17.881Z,13.88
2017-10-12T06:48:45.563Z,13.89
2017-10-12T06:51:13.256Z,13.92
2017-10-12T06:53:40.919Z,13.99
2017-10-12T06:56:08.620Z,14.03
2017-10-12T06:58:36.286Z,14.04
2017-10-12T07:01:04.001Z,14.02
2017-10-12T07:03:31.674Z,13.97
2017-10-12T07:05:59.350Z,13.90
2017-10-12T07:08:27.034Z,13.84
2017-10-12T07:10:54.734Z,13.76
2017-10-12T07:13:22.387Z,13.70
2017-10-12T07:15:50.955Z,13.64
2017-10-12T07:18:18.632Z,13.66
2017-10-12T07:20:46.567Z,13.63
2017-10-12T07:23:14.232Z,13.66
2017-10-12T07:25:41.975Z,13.65
2017-10-12T07:28:09.619Z,13.69
2017-10-12T07:30:37.343Z,13.80
2017-10-12T07:33:05.005Z,13.93
2017-10-12T07:35:32.615Z,14.03
2017-10-12T07:38:00.282Z,14.06
2017-10-12T07:40:28.011Z,14.11
2017-10-12T07:42:55.682Z,14.16
2017-10-12T07:45:23.388Z,14.24
2017-10-12T07:47:51.052Z,14.34
2017-10-12T07:50:18.807Z,14.33
2017-10-12T07:52:46.453Z,14.35
2017-10-12T07:55:14.141Z,14.45
2017-10-12T07:57:41.796Z,14.53
2017-10-12T08:00:09.479Z,14.53
2017-10-12T08:02:37.123Z,14.49
2017-10-12T08:05:04.768Z,14.61
2017-10-12T08:07:32.475Z,14.80
2017-10-12T08:10:00.124Z,14.77
2017-10-12T08:12:27.839Z,14.61
2017-10-12T08:14:55.526Z,14.60
2017-10-12T08:17:23.215Z,14.80
2017-10-12T08:19:50.893Z,14.71
2017-10-12T08:22:18.636Z,14.58
2017-10-12T08:24:46.298Z,14.69
2017-10-12T08:27:13.992Z,14.72
2017-10-12T08:29:41.647Z,14.64
2017-10-12T08:32:09.330Z,14.62
2017-10-12T08:34:36.996Z,14.62
2017-10-12T08:37:04.812Z,14.58
2017-10-12T08:39:32.477Z,14.56
2017-10-12T08:42:00.129Z,14.52
2017-10-12T08:44:27.792Z,14.41
2017-10-12T08:46:56.436Z,14.48
2017-10-12T08:49:24.106Z,14.68
2017-10-12T08:51:51.864Z,14.74
2017-10-12T08:54:19.534Z,14.78
2017-10-12T08:56:47.237Z,14.71
2017-10-12T08:59:14.899Z,14.68
2017-10-12T09:01:42.583Z,14.62
2017-10-12T09:04:10.239Z,14.56
2017-10-12T09:06:37.931Z,14.66
2017-10-12T09:09:05.567Z,14.91
2017-10-12T09:11:33.256Z,15.10
2017-10-12T09:14:00.915Z,15.49
2017-10-12T09:16:28.634Z,15.50
2017-10-12T09:18:56.322Z,15.43
2017-10-12T09:21:23.987Z,15.35
2017-10-12T09:23:51.676Z,15.41
2017-10-12T09:26:24.329Z,15.49
2017-10-12T09:28:52.038Z,15.43
2017-10-12T09:31:19.739Z,15.23
2017-10-12T09:33:47.487Z,15.11
2017-10-12T09:36:15.156Z,15.17
2017-10-12T09:38:42.850Z,15.25
2017-10-12T09:41:10.510Z,15.52
2017-10-12T09:43:38.255Z,15.69
2017-10-12T09:46:05.933Z,15.57
2017-10-12T09:48:33.592Z,15.55
2017-10-12T09:51:01.192Z,15.53
2017-10-12T09:53:28.815Z,15.49
2017-10-12T09:55:56.429Z,15.47
2017-10-12T09:58:24.067Z,15.33
2017-10-12T10:00:51.651Z,15.35
2017-10-12T10:03:19.302Z,15.47
2017-10-12T10:05:46.942Z,15.55
2017-10-12T10:08:14.586Z,15.52
2017-10-12T10:10:42.191Z,15.52
2017-10-12T10:13:09.799Z,15.58
2017-10-12T10:15:37.406Z,15.55
2017-10-12T10:18:04.986Z,15.64
2017-10-12T10:20:32.615Z,15.76
2017-10-12T10:23:00.222Z,15.82
2017-10-12T10:25:27.844Z,15.60
2017-10-12T10:27:55.417Z,15.48
2017-10-12T10:30:23.028Z,15.66
2017-10-12T10:32:50.606Z,16.02
2017-10-12T10:35:18.214Z,16.20
2017-10-12T10:37:45.850Z,15.87
2017-10-12T10:40:13.475Z,15.74
2017-10-12T10:42:41.054Z,15.59
2017-10-12T10:45:08.677Z,15.54
2017-10-12T10:47:36.253Z,15.39
2017-10-12T10:50:03.907Z,15.17
2017-10-12T10:52:31.524Z,15.06
2017-10-12T10:54:59.157Z,15.08
2017-10-12T10:57:26.743Z,15.16
2017-10-12T10:59:54.353Z,15.27
2017-10-12T11:02:21.937Z,15.53
2017-10-12T11:04:49.569Z,15.80
2017-10-12T11:07:17.177Z,15.69
2017-10-12T11:09:44.813Z,15.67
2017-10-12T11:12:12.421Z,16.07
2017-10-12T11:14:40.913Z,16.16
2017-10-12T11:17:08.547Z,15.91
2017-10-12T11:19:36.162Z,16.12
2017-10-12T11:22:03.794Z,16.24
2017-10-12T11:24:31.400Z,16.51
2017-10-12T11:26:59.046Z,16.51
2017-10-12T11:29:26.651Z,16.53
2017-10-12T11:31:55.393Z,16.27
2017-10-12T11:34:23.003Z,16.23
2017-10-12T11:36:50.634Z,16.09
2017-10-12T11:39:18.309Z,15.80
2017-10-12T11:41:45.916Z,15.66
2017-10-12T11:44:13.514Z,15.85
2017-10-12T11:46:41.196Z,15.89
2017-10-12T11:49:08.876Z,15.97
2017-10-12T11:51:36.560Z,15.77
2017-10-12T11:54:04.235Z,15.74
2017-10-12T11:56:31.921Z,15.84
2017-10-12T11:58:59.566Z,16.07
2017-10-12T12:01:27.260Z,16.12
2017-10-12T12:03:54.905Z,16.28
2017-10-12T12:06:22.534Z,16.55
2017-10-12T12:08:50.198Z,16.78
2017-10-12T12:11:17.888Z,16.74
2017-10-12T12:13:45.472Z,16.55
2017-10-12T12:16:14.151Z,16.20
2017-10-12T12:18:41.804Z,15.93
2017-10-12T12:21:09.510Z,15.80
2017-10-12T12:23:37.176Z,15.92
2017-10-12T12:26:04.885Z,16.06
2017-10-12T12:28:32.542Z,16.29
2017-10-12T12:31:00.226Z,16.40
2017-10-12T12:33:27.895Z,16.76
2017-10-12T12:35:55.569Z,16.73
2017-10-12T12:38:23.233Z,16.77
2017-10-12T12:40:51.350Z,16.45
2017-10-12T12:43:19.000Z,15.95
2017-10-12T12:45:46.656Z,15.44
2017-10-12T12:48:14.350Z,15.55
2017-10-12T12:50:42.005Z,15.46
2017-10-12T12:53:09.690Z,15.71
2017-10-12T12:55:37.343Z,15.89
2017-10-12T12:58:05.054Z,16.13
2017-10-12T13:00:32.709Z,16.23
2017-10-12T13:03:00.395Z,16.34
2017-10-12T13:07:55.683Z,15.68
2017-10-12T13:10:23.339Z,15.57
2017-10-12T13:12:51.016Z,15.89
2017-10-12T13:15:18.600Z,15.98
2017-10-12T13:17:46.303Z,16.01
2017-10-12T13:20:13.968Z,15.97
2017-10-12T13:22:41.646Z,16.08
2017-10-12T13:25:09.283Z,16.03
2017-10-12T13:27:36.961Z,15.92
2017-10-12T13:30:04.624Z,16.01
2017-10-12T13:32:32.335Z,16.11
2017-10-12T13:35:00.019Z,16.29
2017-10-12T13:37:27.706Z,16.24
2017-10-12T13:39:55.373Z,16.13
2017-10-12T13:42:23.022Z,15.95
2017-10-12T13:44:50.645Z,15.85
2017-10-12T13:47:18.311Z,15.77
2017-10-12T13:49:45.993Z,15.62
2017-10-12T13:52:13.641Z,15.49
2017-10-12T13:54:41.351Z,15.57
2017-10-12T13:57:09.009Z,15.69
2017-10-12T13:59:36.709Z,15.73
2017-10-12T14:02:04.347Z,15.58
2017-10-12T14:04:32.053Z,15.71
2017-10-12T14:06:59.701Z,15.82
2017-10-12T14:09:28.224Z,15.97
2017-10-12T14:11:55.894Z,15.86
2017-10-12T14:14:23.600Z,15.66
2017-10-12T14:16:51.332Z,15.46
2017-10-12T14:19:19.061Z,15.35
2017-10-12T14:21:46.701Z,14.92
2017-10-12T14:24:14.371Z,14.49
2017-10-12T14:26:42.032Z,14.30
2017-10-12T14:29:09.715Z,14.18
2017-10-12T14:31:37.372Z,14.10
2017-10-12T14:34:05.063Z,14.12
2017-10-12T14:36:32.812Z,14.23
2017-10-12T14:39:00.517Z,14.33
2017-10-12T14:41:28.199Z,14.31
2017-10-12T14:43:55.941Z,14.25
2017-10-12T14:46:23.592Z,14.23
2017-10-12T14:48:51.174Z,14.21
2017-10-12T14:51:18.845Z,14.22
2017-10-12T14:53:46.492Z,14.28
2017-10-12T14:56:14.193Z,14.39
2017-10-12T14:58:41.850Z,14.46
2017-10-12T15:01:09.491Z,14.59
2017-10-12T15:03:37.109Z,14.61
2017-10-12T15:06:04.781Z,14.58
2017-10-12T15:08:32.485Z,14.51
2017-10-12T15:11:00.188Z,14.52
2017-10-12T15:13:27.782Z,14.52
2017-10-12T15:15:55.430Z,14.62
2017-10-12T15:18:23.008Z,14.69
2017-10-12T15:20:50.701Z,14.74
2017-10-12T15:23:18.349Z,14.69
2017-10-12T15:25:45.980Z,14.63
2017-10-12T15:28:13.580Z,14.58
2017-10-12T15:30:41.193Z,14.57
2017-10-12T15:33:08.769Z,14.56
2017-10-12T15:35:36.413Z,14.52
2017-10-12T15:38:04.064Z,14.36
2017-10-12T15:40:31.759Z,14.32
2017-10-12T15:42:59.365Z,14.25
2017-10-12T15:45:26.996Z,14.16
2017-10-12T15:47:54.803Z,14.14
2017-10-12T15:50:22.522Z,14.02
2017-10-12T15:52:50.156Z,14.01
2017-10-12T15:55:17.831Z,13.94
2017-10-12T15:57:45.486Z,13.89
2017-10-12T16:00:13.190Z,13.83
2017-10-12T16:02:40.863Z,13.76
2017-10-12T16:05:08.582Z,13.66
2017-10-12T16:07:36.186Z,13.59
2017-10-12T16:10:03.912Z,13.58
2017-10-12T16:12:31.566Z,13.53
2017-10-12T16:14:59.301Z,13.52
2017-10-12T16:17:26.889Z,13.42
2017-10-12T16:19:54.518Z,13.40
2017-10-12T16:22:22.110Z,13.32
2017-10-12T16:24:49.796Z,13.22
2017-10-12T16:27:17.442Z,13.14
2017-10-12T16:29:45.123Z,13.04
2017-10-12T16:32:12.786Z,13.00
2017-10-12T16:34:40.556Z,12.96
2017-10-12T16:37:08.214Z,12.89
2017-10-12T16:39:35.925Z,12.92
2017-10-12T16:42:03.629Z,12.89
2017-10-12T16:44:31.387Z,12.87
2017-10-12T16:46:59.016Z,12.86
2017-10-12T16:49:26.706Z,12.85
2017-10-12T16:51:54.349Z,12.80
2017-10-12T16:54:22.058Z,12.75
2017-10-12T16:56:49.715Z,12.75
2017-10-12T16:59:17.342Z,12.74
2017-10-12T17:01:44.975Z,12.66
2017-10-12T17:04:12.576Z,12.57
2017-10-12T17:06:40.257Z,12.56
2017-10-12T17:09:07.835Z,12.52
2017-10-12T17:11:35.576Z,12.46
2017-10-12T17:14:03.192Z,12.42
2017-10-12T17:16:30.819Z,12.46
2017-10-12T17:18:58.500Z,12.43
2017-10-12T17:21:26.292Z,12.37
2017-10-12T17:23:53.940Z,12.33
2017-10-12T17:26:21.654Z,12.27
2017-10-12T17:28:49.248Z,12.27
2017-10-12T17:31:16.891Z,12.26
2017-10-12T17:36:12.140Z,12.13
2017-10-12T17:38:39.821Z,12.08
2017-10-12T17:41:07.486Z,12.09
2017-10-12T17:43:35.190Z,12.14
2017-10-12T17:46:02.773Z,12.15
2017-10-12T17:48:30.556Z,12.09
2017-10-12T17:50:58.157Z,12.01
2017-10-12T17:53:25.781Z,11.95
2017-10-12T17:55:53.390Z,11.93
2017-10-12T17:58:21.015Z,11.90
2017-10-12T18:00:48.599Z,11.93
2017-10-12T18:03:16.242Z,11.93
2017-10-12T18:05:43.835Z,11.95
2017-10-12T18:08:11.467Z,11.96
2017-10-12T18:10:39.052Z,11.98
2017-10-12T18:13:06.693Z,11.98
2017-10-12T18:15:34.289Z,11.93
2017-10-12T18:18:01.882Z,11.87
2017-10-12T18:20:29.499Z,11.79
2017-10-12T18:22:57.103Z,11.74
2017-10-12T18:25:24.740Z,11.67
2017-10-12T18:27:52.331Z,11.64
2017-10-12T18:30:19.959Z,11.60
2017-10-12T18:32:47.658Z,11.62
2017-10-12T18:35:15.397Z,11.62
2017-10-12T18:37:43.078Z,11.58
2017-10-12T18:40:10.784Z,11.59
2017-10-12T18:42:38.455Z,11.61
2017-10-12T18:45:06.123Z,11.62
2017-10-12T18:47:33.764Z,11.64
2017-10-12T18:50:01.528Z,11.63
2017-10-12T18:52:29.128Z,11.62
2017-10-12T18:54:56.857Z,11.58
2017-10-12T18:57:24.517Z,11.55
2017-10-12T18:59:52.202Z,11.54
2017-10-12T19:02:19.875Z,11.57
2017-10-12T19:04:47.576Z,11.61
2017-10-12T19:07:15.153Z,11.61
2017-10-12T19:09:42.798Z,11.59
2017-10-12T19:12:10.454Z,11.56
2017-10-12T19:14:38.079Z,11.60
2017-10-12T19:17:05.762Z,11.65
2017-10-12T19:19:33.382Z,11.66
2017-10-12T19:22:01.170Z,11.67
2017-10-12T19:24:29.069Z,11.64
2017-10-12T19:26:56.731Z,11.66
2017-10-12T19:29:24.399Z,11.66
2017-10-12T19:31:52.073Z,11.68
2017-10-12T19:34:19.724Z,11.73
2017-10-12T19:36:47.338Z,11.75
2017-10-12T19:39:14.925Z,11.75
2017-10-12T19:41:42.845Z,11.71
2017-10-12T19:44:10.450Z,11.70
2017-10-12T19:46:38.076Z,11.66
2017-10-12T19:49:05.715Z,11.66
2017-10-12T19:51:33.426Z,11.66
2017-10-12T19:54:01.064Z,11.67
2017-10-12T19:56:28.686Z,11.70
2017-10-12T20:01:24.054Z,11.64
2017-10-12T20:03:51.676Z,11.60
2017-10-12T20:06:19.286Z,11.57
2017-10-12T20:08:46.948Z,11.58
2017-10-12T20:11:14.550Z,11.54
2017-10-12T20:16:09.730Z,11.41
2017-10-12T20:18:37.342Z,11.35
2017-10-12T20:21:08.142Z,11.30
2017-10-12T20:23:35.766Z,11.27
2017-10-12T20:26:03.373Z,11.22
2017-10-12T20:28:31.001Z,11.21
2017-10-12T20:30:58.653Z,11.17
2017-10-12T20:33:26.264Z,11.14
2017-10-12T20:35:53.878Z,11.10
2017-10-12T20:38:21.573Z,11.08
2017-10-12T20:40:49.209Z,11.08
2017-10-12T20:43:16.832Z,11.10
2017-10-12T20:45:45.323Z,11.05
2017-10-12T20:48:12.971Z,11.02
2017-10-12T20:50:40.547Z,11.07
2017-10-12T20:53:08.184Z,11.14
2017-10-12T20:55:35.829Z,11.15
2017-10-12T20:58:03.455Z,11.11
2017-10-12T21:00:31.076Z,11.10
2017-10-12T21:02:58.672Z,11.10
2017-10-12T21:05:26.308Z,11.09
2017-10-12T21:07:53.910Z,11.11
2017-10-12T21:10:21.535Z,11.10
2017-10-12T21:12:49.128Z,11.11
2017-10-12T21:15:16.777Z,11.10
2017-10-12T21:17:44.371Z,11.10
2017-10-12T21:20:11.997Z,11.05
2017-10-12T21:22:39.568Z,11.04
2017-10-12T21:25:09.601Z,11.03
2017-10-12T21:27:39.025Z,11.03
2017-10-12T21:30:06.831Z,10.98
2017-10-12T21:32:34.434Z,10.99
2017-10-12T21:35:02.119Z,10.98
2017-10-12T21:37:29.755Z,11.00
2017-10-12T21:39:57.379Z,10.99
2017-10-12T21:42:25.026Z,10.98
2017-10-12T21:44:52.698Z,11.01
2017-10-12T21:47:20.269Z,10.98
2017-10-12T21:49:47.967Z,10.94
2017-10-12T21:52:15.610Z,10.92
2017-10-12T21:54:43.966Z,10.89
2017-10-12T21:57:11.622Z,10.86
2017-10-12T21:59:39.303Z,10.83
2017-10-12T22:02:06.974Z,10.79
2017-10-12T22:04:34.618Z,10.77
2017-10-12T22:07:02.310Z,10.82
2017-10-12T22:09:29.922Z,10.83
2017-10-12T22:11:57.591Z,10.86
2017-10-12T22:14:25.236Z,10.96
2017-10-12T22:16:52.973Z,10.97
2017-10-12T22:19:20.621Z,10.97
2017-10-12T22:21:48.303Z,10.98
2017-10-12T22:24:15.945Z,11.04
2017-10-12T22:26:43.554Z,11.08
2017-10-12T22:29:11.205Z,11.06
2017-10-12T22:31:38.876Z,11.07
2017-10-12T22:34:06.557Z,11.09
2017-10-12T22:36:34.227Z,11.09
2017-10-12T22:39:01.859Z,11.14
2017-10-12T22:41:29.455Z,11.19
2017-10-12T22:43:57.122Z,11.22
2017-10-12T22:46:24.758Z,11.22
2017-10-12T22:48:52.425Z,11.22
2017-10-12T22:51:20.006Z,11.18
2017-10-12T22:53:47.670Z,11.17
2017-10-12T22:56:15.306Z,11.16
2017-10-12T22:58:42.923Z,11.19
2017-10-12T23:01:10.511Z,11.17
2017-10-12T23:03:38.173Z,11.15
2017-10-12T23:06:05.805Z,11.19
2017-10-12T23:08:33.465Z,11.17
2017-10-12T23:11:01.101Z,11.13
2017-10-12T23:13:28.788Z,11.09
2017-10-12T23:15:57.292Z,11.07
2017-10-12T23:18:24.981Z,11.09
2017-10-12T23:20:52.551Z,11.05
2017-10-12T23:23:20.164Z,10.99
2017-10-12T23:25:47.770Z,10.93
2017-10-12T23:28:15.406Z,10.86
2017-10-12T23:30:43.041Z,10.80
2017-10-12T23:33:10.684Z,10.72
2017-10-12T23:35:38.355Z,10.69
2017-10-12T23:38:05.993Z,10.65
2017-10-12T23:40:33.685Z,10.63
2017-10-12T23:43:01.363Z,10.62
2017-10-12T23:45:29.034Z,10.60
2017-10-12T23:47:56.671Z,10.58
2017-10-12T23:50:24.356Z,10.55
2017-10-12T23:52:51.994Z,10.54
2017-10-12T23:55:19.659Z,10.50
2017-10-12T23:57:47.313Z,10.50
